Time;durP1;ratioP1;P1;durP2;ratioP2;P2;SDS_P1;SDS_P2;PMS_P1;PMS_P2;Temp;Humidity;BMP_temperature;BMP_pressure;BME280_temperature;BME280_humidity;BME280_pressure;Samples;Min_cycle;Max_cycle;Signal;HPM_P1;HPM_P2
2022/04/24 00:00:44;;;;;;;2.30;1.80;;;;;;;7.56;64.39;99895.33;104991;1274;61388;-73
2022/04/24 00:03:11;;;;;;;4.50;2.20;;;;;;;7.52;64.37;99894.34;104938;1274;61244;-73
2022/04/24 00:05:38;;;;;;;4.10;2.00;;;;;;;7.49;64.26;99892.64;104879;1276;74901;-73
2022/04/24 00:08:05;;;;;;;5.90;2.40;;;;;;;7.45;64.48;99889.40;104868;1274;61342;-72
2022/04/24 00:10:31;;;;;;;3.70;2.40;;;;;;;7.42;64.70;99890.24;104849;1275;72980;-72
2022/04/24 00:12:58;;;;;;;3.90;2.10;;;;;;;7.40;65.03;99889.50;104965;1274;61090;-73
2022/04/24 00:15:24;;;;;;;4.30;2.50;;;;;;;7.38;65.24;99889.68;104968;1276;61451;-73
2022/04/24 00:17:51;;;;;;;5.20;2.60;;;;;;;7.36;65.20;99887.21;104960;1274;61379;-73
2022/04/24 00:20:17;;;;;;;4.60;2.30;;;;;;;7.34;65.36;99886.20;104873;1276;61354;-71
2022/04/24 00:22:44;;;;;;;3.30;2.00;;;;;;;7.31;65.67;99881.66;104934;1274;61243;-73
2022/04/24 00:25:10;;;;;;;4.20;2.20;;;;;;;7.29;65.46;99878.15;104972;1273;61799;-72
2022/04/24 00:27:37;;;;;;;3.90;2.10;;;;;;;7.27;65.36;99877.05;105021;1273;61160;-71
2022/04/24 00:30:04;;;;;;;4.60;2.60;;;;;;;7.23;65.46;99877.98;104873;1276;61288;-72
2022/04/24 00:32:30;;;;;;;6.90;2.10;;;;;;;7.19;65.56;99876.48;105026;1274;69855;-71
2022/04/24 00:34:57;;;;;;;4.30;2.00;;;;;;;7.16;65.55;99877.55;104936;1275;73122;-72
2022/04/24 00:37:24;;;;;;;4.40;2.10;;;;;;;7.13;65.79;99875.60;104865;1276;61345;-71
2022/04/24 00:39:51;;;;;;;3.60;2.50;;;;;;;7.10;65.49;99869.98;104952;1274;61972;-70
2022/04/24 00:42:18;;;;;;;4.80;2.10;;;;;;;7.04;65.51;99866.70;104854;1275;75020;-72
2022/04/24 00:44:45;;;;;;;4.10;2.10;;;;;;;7.00;65.76;99872.46;105157;1275;71138;-71
2022/04/24 00:47:20;;;;;;;4.30;2.30;;;;;;;6.96;65.75;99870.96;104784;1274;72783;-73
2022/04/24 00:49:46;;;;;;;5.00;1.90;;;;;;;6.90;65.92;99875.30;105307;1274;61329;-73
2022/04/24 00:52:14;;;;;;;3.10;2.30;;;;;;;6.85;66.07;99873.24;104861;1276;61283;-72
2022/04/24 00:54:41;;;;;;;4.00;2.00;;;;;;;6.80;66.06;99877.19;104811;1274;76129;-72
2022/04/24 00:57:10;;;;;;;4.60;2.20;;;;;;;6.75;66.51;99876.31;104896;1274;71245;-72
2022/04/24 00:59:37;;;;;;;3.70;2.10;;;;;;;6.70;66.58;99869.08;105034;1275;74032;-73
2022/04/24 01:02:06;;;;;;;3.70;2.40;;;;;;;6.66;66.81;99867.15;104951;1275;61308;-74
2022/04/24 01:04:37;;;;;;;6.70;3.20;;;;;;;6.61;67.11;99864.00;104924;1275;61113;-73
2022/04/24 01:07:05;;;;;;;3.30;2.10;;;;;;;6.56;67.28;99860.16;105128;1274;73787;-74
2022/04/24 01:09:34;;;;;;;5.40;2.60;;;;;;;6.51;67.63;99858.14;104974;1274;72793;-73
2022/04/24 01:12:01;;;;;;;11.30;2.80;;;;;;;6.48;68.18;99860.66;105277;1274;73426;-73
2022/04/24 01:14:30;;;;;;;4.30;2.40;;;;;;;6.45;67.99;99859.60;105025;1276;62879;-74
2022/04/24 01:16:58;;;;;;;3.80;2.20;;;;;;;6.41;68.11;99858.42;104967;1276;61508;-74
2022/04/24 01:19:26;;;;;;;4.00;2.70;;;;;;;6.37;68.06;99856.89;104875;1276;74912;-71
2022/04/24 01:21:54;;;;;;;3.70;1.60;;;;;;;6.34;68.12;99860.65;105340;1274;71359;-73
2022/04/24 01:24:24;;;;;;;4.10;2.50;;;;;;;6.29;68.38;99856.97;105201;1274;74008;-73
2022/04/24 01:26:51;;;;;;;3.70;2.20;;;;;;;6.25;68.71;99850.57;105179;1276;61380;-73
2022/04/24 01:29:18;;;;;;;4.50;2.50;;;;;;;6.20;68.86;99849.80;105012;1274;61239;-72
2022/04/24 01:31:48;;;;;;;2.70;1.70;;;;;;;6.18;69.11;99846.95;105078;1274;74901;-73
2022/04/24 01:34:16;;;;;;;2.60;1.80;;;;;;;6.14;69.12;99849.39;104975;1274;71879;-72
2022/04/24 01:36:43;;;;;;;4.00;1.90;;;;;;;6.11;69.16;99842.00;104902;1277;73021;-71
2022/04/24 01:39:10;;;;;;;5.60;2.10;;;;;;;6.08;69.49;99841.23;104953;1276;61075;-73
2022/04/24 01:41:37;;;;;;;5.20;2.90;;;;;;;6.05;69.53;99843.02;104955;1276;61150;-73
2022/04/24 01:44:04;;;;;;;5.90;3.30;;;;;;;6.00;69.60;99843.05;105426;1273;75106;-74
2022/04/24 01:46:30;;;;;;;4.20;2.40;;;;;;;5.95;69.95;99842.85;104986;1274;70710;-73
2022/04/24 01:48:57;;;;;;;4.70;2.60;;;;;;;5.91;70.00;99841.04;104964;1274;73245;-70
2022/04/24 01:51:25;;;;;;;3.30;1.70;;;;;;;5.87;70.45;99833.52;104849;1276;61806;-73
2022/04/24 01:53:52;;;;;;;4.70;3.20;;;;;;;5.83;70.86;99835.70;104847;1275;61925;-72
2022/04/24 01:56:18;;;;;;;5.30;2.70;;;;;;;5.81;71.22;99834.95;104886;1276;61372;-72
2022/04/24 01:58:45;;;;;;;3.70;2.60;;;;;;;5.79;71.32;99833.23;105407;1274;71428;-71
2022/04/24 02:01:12;;;;;;;4.80;2.20;;;;;;;5.77;71.54;99835.38;104873;1275;72031;-71
2022/04/24 02:03:39;;;;;;;4.20;2.20;;;;;;;5.74;71.43;99839.15;104834;1275;61369;-71
2022/04/24 02:06:09;;;;;;;2.40;1.50;;;;;;;5.70;71.23;99840.44;105004;1276;61273;-72
2022/04/24 02:08:38;;;;;;;4.90;2.20;;;;;;;5.66;71.54;99838.60;104971;1274;73689;-72
2022/04/24 02:11:06;;;;;;;4.40;2.40;;;;;;;5.61;71.30;99840.66;104857;1276;74154;-71
2022/04/24 02:13:33;;;;;;;3.60;2.30;;;;;;;5.57;71.65;99841.45;104960;1274;72856;-72
2022/04/24 02:16:00;;;;;;;4.90;2.10;;;;;;;5.51;71.65;99838.09;105020;1274;61256;-73
2022/04/24 02:18:27;;;;;;;3.80;2.00;;;;;;;5.45;71.88;99837.27;105278;1276;60473;-73
2022/04/24 02:20:54;;;;;;;7.80;2.90;;;;;;;5.42;72.58;99839.76;105201;1274;74928;-73
2022/04/24 02:23:21;;;;;;;3.50;2.60;;;;;;;5.38;72.36;99840.90;105235;1276;71385;-71
2022/04/24 02:25:47;;;;;;;3.50;2.40;;;;;;;5.31;72.25;99838.03;105142;1276;73391;-73
2022/04/24 02:28:14;;;;;;;4.40;2.40;;;;;;;5.28;72.71;99835.59;105064;1275;62551;-74
2022/04/24 02:30:42;;;;;;;5.60;2.60;;;;;;;5.22;72.94;99838.11;105108;1276;61152;-73
2022/04/24 02:33:09;;;;;;;4.60;2.60;;;;;;;5.17;73.07;99837.77;105078;1274;74053;-73
2022/04/24 02:35:35;;;;;;;4.50;2.60;;;;;;;5.12;73.33;99836.71;105185;1276;71499;-72
2022/04/24 02:38:02;;;;;;;5.20;2.50;;;;;;;5.09;73.80;99843.55;105038;1275;72946;-73
2022/04/24 02:40:28;;;;;;;3.40;2.10;;;;;;;5.06;74.02;99843.11;104954;1275;61276;-72
2022/04/24 02:42:55;;;;;;;5.60;2.60;;;;;;;5.05;74.36;99837.13;105012;1274;61340;-73
2022/04/24 02:45:22;;;;;;;3.00;2.00;;;;;;;5.04;74.43;99837.61;105005;1276;61871;-71
2022/04/24 02:47:49;;;;;;;2.80;1.80;;;;;;;5.03;74.71;99834.33;105014;1276;71522;-71
2022/04/24 02:50:16;;;;;;;3.50;2.20;;;;;;;5.02;74.99;99835.70;105058;1276;74023;-71
2022/04/24 02:52:54;;;;;;;5.20;2.50;;;;;;;5.00;74.86;99832.89;105016;1276;65272;-74
2022/04/24 02:55:21;;;;;;;5.10;2.90;;;;;;;4.97;74.65;99830.77;104963;1274;61132;-71
2022/04/24 02:57:49;;;;;;;4.80;2.40;;;;;;;4.94;75.28;99827.99;104987;1275;76224;-72
2022/04/24 03:00:20;;;;;;;4.30;2.40;;;;;;;4.90;75.18;99829.06;105199;1273;71489;-72
2022/04/24 03:02:47;;;;;;;3.90;2.40;;;;;;;4.86;75.41;99824.74;105239;1276;74054;-73
2022/04/24 03:05:17;;;;;;;4.90;2.50;;;;;;;4.82;75.61;99823.21;104884;1275;62619;-71
2022/04/24 03:07:44;;;;;;;3.30;2.20;;;;;;;4.79;76.11;99822.68;104981;1276;61406;-71
2022/04/24 03:10:12;;;;;;;5.80;2.20;;;;;;;4.76;76.08;99824.26;104880;1276;74033;-72
2022/04/24 03:12:40;;;;;;;2.60;2.10;;;;;;;4.73;76.69;99823.52;105040;1276;71161;-72
2022/04/24 03:15:08;;;;;;;2.80;1.70;;;;;;;4.70;76.64;99820.41;105121;1274;72959;-71
2022/04/24 03:17:35;;;;;;;5.40;2.30;;;;;;;4.67;76.81;99818.60;105012;1275;61464;-70
2022/04/24 03:20:04;;;;;;;5.00;2.30;;;;;;;4.64;77.12;99814.00;104957;1276;61230;-71
2022/04/24 03:22:33;;;;;;;4.10;2.30;;;;;;;4.61;76.90;99820.45;104905;1276;74966;-71
2022/04/24 03:25:04;;;;;;;2.80;1.50;;;;;;;4.57;77.42;99819.84;105025;1274;71375;-71
2022/04/24 03:27:30;;;;;;;5.60;2.20;;;;;;;4.56;78.02;99818.79;105091;1274;73160;-71
2022/04/24 03:29:57;;;;;;;4.60;2.40;;;;;;;4.54;78.32;99818.11;105100;1274;61291;-71
2022/04/24 03:32:24;;;;;;;5.30;3.00;;;;;;;4.52;78.68;99818.80;105231;1274;61262;-71
2022/04/24 03:34:51;;;;;;;6.70;2.70;;;;;;;4.52;78.80;99819.18;104932;1275;76221;-71
2022/04/24 03:37:18;;;;;;;7.10;2.60;;;;;;;4.49;78.41;99818.34;105005;1274;71455;-71
2022/04/24 03:39:45;;;;;;;4.10;2.40;;;;;;;4.47;78.93;99815.54;105201;1276;72681;-71
2022/04/24 03:42:12;;;;;;;4.10;2.70;;;;;;;4.46;78.88;99816.77;105289;1273;61270;-70
2022/04/24 03:44:39;;;;;;;3.90;2.10;;;;;;;4.45;79.21;99817.23;104946;1276;61829;-73
2022/04/24 03:47:07;;;;;;;2.90;2.20;;;;;;;4.44;79.34;99817.33;105032;1276;74908;-72
2022/04/24 03:49:34;;;;;;;6.20;2.20;;;;;;;4.42;79.65;99818.34;105152;1274;71389;-72
2022/04/24 03:52:01;;;;;;;4.70;2.10;;;;;;;4.42;79.87;99818.59;105019;1276;74047;-72
2022/04/24 03:54:27;;;;;;;3.30;1.60;;;;;;;4.40;79.95;99814.90;105091;1274;61246;-70
2022/04/24 03:56:54;;;;;;;4.30;1.90;;;;;;;4.39;80.33;99813.98;105040;1276;61342;-72
2022/04/24 03:59:21;;;;;;;3.70;1.90;;;;;;;4.38;80.46;99814.41;105188;1275;59263;-72
2022/04/24 04:01:47;;;;;;;2.80;1.90;;;;;;;4.38;80.41;99813.35;104954;1274;71375;-71
2022/04/24 04:04:15;;;;;;;2.90;1.70;;;;;;;4.38;80.81;99814.98;105066;1274;72928;-70
2022/04/24 04:06:42;;;;;;;7.30;2.40;;;;;;;4.37;81.16;99816.06;105011;1276;62479;-70
2022/04/24 04:09:10;;;;;;;3.10;1.90;;;;;;;4.37;80.93;99815.44;105046;1274;62556;-71
2022/04/24 04:11:37;;;;;;;4.50;2.50;;;;;;;4.35;80.84;99816.25;105119;1275;75998;-70
2022/04/24 04:14:04;;;;;;;3.90;2.70;;;;;;;4.34;81.28;99815.49;105188;1274;72836;-72
2022/04/24 04:16:30;;;;;;;3.40;2.10;;;;;;;4.33;80.84;99814.90;105269;1273;74342;-72
2022/04/24 04:18:57;;;;;;;4.50;2.40;;;;;;;4.31;80.79;99815.11;105183;1274;61271;-71
2022/04/24 04:21:26;;;;;;;3.70;2.30;;;;;;;4.28;80.61;99807.94;105081;1274;61185;-71
2022/04/24 04:23:53;;;;;;;2.90;2.00;;;;;;;4.28;80.96;99813.36;104906;1276;75958;-71
2022/04/24 04:26:19;;;;;;;3.70;2.00;;;;;;;4.27;81.01;99812.51;105136;1274;61283;-71
2022/04/24 04:28:47;;;;;;;2.30;1.70;;;;;;;4.27;81.14;99813.07;104995;1276;72966;-72
2022/04/24 04:31:14;;;;;;;3.60;2.70;;;;;;;4.27;81.27;99812.18;105054;1276;62441;-71
2022/04/24 04:33:41;;;;;;;2.50;1.80;;;;;;;4.27;81.33;99812.52;105052;1274;61677;-72
2022/04/24 04:36:08;;;;;;;3.60;2.30;;;;;;;4.29;81.43;99815.20;105029;1276;77461;-73
2022/04/24 04:38:35;;;;;;;3.50;2.00;;;;;;;4.30;81.54;99818.91;104956;1274;72628;-72
2022/04/24 04:41:07;;;;;;;3.50;2.10;;;;;;;4.32;81.38;99816.46;105030;1274;73764;-72
2022/04/24 04:43:33;;;;;;;3.60;2.70;;;;;;;4.35;81.84;99819.30;105146;1274;61719;-71
2022/04/24 04:46:00;;;;;;;5.10;2.10;;;;;;;4.38;82.01;99821.20;105008;1275;61279;-72
2022/04/24 04:48:26;;;;;;;3.70;1.90;;;;;;;4.42;81.34;99822.76;104956;1276;76033;-71
2022/04/24 04:50:53;;;;;;;4.40;2.00;;;;;;;4.45;81.63;99823.02;105029;1276;61269;-72
2022/04/24 04:53:21;;;;;;;3.20;2.10;;;;;;;4.47;81.52;99820.13;105085;1275;74020;-71
2022/04/24 04:55:48;;;;;;;3.90;2.00;;;;;;;4.52;81.59;99824.40;104916;1276;61438;-71
2022/04/24 04:58:14;;;;;;;4.80;2.20;;;;;;;4.56;81.45;99822.71;104954;1274;63967;-71
2022/04/24 05:00:41;;;;;;;3.80;2.20;;;;;;;4.62;81.51;99827.02;104943;1276;76016;-71
2022/04/24 05:03:08;;;;;;;4.20;1.70;;;;;;;4.67;81.29;99823.14;104941;1274;71517;-72
2022/04/24 05:05:35;;;;;;;4.30;2.30;;;;;;;4.74;81.34;99827.39;105025;1276;71747;-71
2022/04/24 05:08:04;;;;;;;4.40;2.30;;;;;;;4.80;80.85;99829.89;105366;1274;61481;-72
2022/04/24 05:10:31;;;;;;;3.30;2.00;;;;;;;4.87;80.86;99830.23;104936;1276;61226;-70
2022/04/24 05:12:58;;;;;;;4.30;2.10;;;;;;;4.95;80.60;99832.10;104985;1276;74943;-75
2022/04/24 05:15:25;;;;;;;5.20;2.20;;;;;;;5.02;80.67;99832.05;105095;1276;61317;-71
2022/04/24 05:17:52;;;;;;;3.70;2.30;;;;;;;5.09;80.41;99835.59;105048;1276;74120;-71
2022/04/24 05:20:19;;;;;;;4.30;2.20;;;;;;;5.18;80.26;99835.94;104987;1276;62515;-73
2022/04/24 05:22:46;;;;;;;4.70;2.20;;;;;;;5.27;80.23;99833.42;105052;1276;61244;-70
2022/04/24 05:25:14;;;;;;;3.40;2.00;;;;;;;5.35;79.92;99829.43;105016;1275;61266;-70
2022/04/24 05:27:41;;;;;;;3.90;1.90;;;;;;;5.44;79.47;99830.43;105161;1274;71810;-70
2022/04/24 05:30:32;;;;;;;2.30;1.50;;;;;;;5.52;79.14;99827.24;104966;1276;72943;-74
2022/04/24 05:32:58;;;;;;;3.50;1.80;;;;;;;5.64;78.99;99829.20;104997;1275;61236;-73
2022/04/24 05:35:25;;;;;;;3.30;1.80;;;;;;;5.74;78.49;99831.63;104949;1276;61208;-70
2022/04/24 05:37:52;;;;;;;4.30;2.10;;;;;;;5.83;78.21;99833.23;104977;1276;75941;-73
2022/04/24 05:40:18;;;;;;;5.30;2.10;;;;;;;5.94;77.84;99837.13;104894;1275;72614;-72
2022/04/24 05:42:51;;;;;;;3.10;2.00;;;;;;;6.05;77.60;99834.56;104956;1276;73890;-72
2022/04/24 05:45:22;;;;;;;3.80;1.90;;;;;;;6.17;77.33;99835.04;105061;1275;61600;-72
2022/04/24 05:47:49;;;;;;;9.90;2.60;;;;;;;6.29;77.04;99835.00;105009;1274;61614;-71
2022/04/24 05:50:17;;;;;;;3.20;1.90;;;;;;;6.42;76.74;99838.59;105074;1276;76013;-70
2022/04/24 05:52:43;;;;;;;2.20;1.80;;;;;;;6.55;76.16;99843.38;104864;1276;72394;-69
2022/04/24 05:55:11;;;;;;;2.80;1.70;;;;;;;6.67;75.96;99845.17;104984;1276;73044;-72
2022/04/24 05:57:38;;;;;;;2.90;1.40;;;;;;;6.78;75.42;99846.55;104937;1276;62633;-73
2022/04/24 06:00:09;;;;;;;5.00;1.50;;;;;;;6.92;75.13;99849.98;104945;1276;61437;-73
2022/04/24 06:02:36;;;;;;;5.10;1.60;;;;;;;7.06;74.39;99847.21;105060;1276;74947;-71
2022/04/24 06:05:03;;;;;;;3.40;1.60;;;;;;;7.20;73.67;99841.39;104956;1276;71462;-74
2022/04/24 06:07:29;;;;;;;4.80;2.00;;;;;;;7.33;72.67;99840.64;104884;1276;74684;-72
2022/04/24 06:09:56;;;;;;;2.50;1.70;;;;;;;7.46;71.96;99837.04;104950;1275;61333;-72
2022/04/24 06:12:23;;;;;;;4.00;1.90;;;;;;;7.61;71.83;99835.16;104900;1276;61256;-70
2022/04/24 06:14:49;;;;;;;3.80;1.60;;;;;;;7.75;70.82;99832.59;104929;1274;75941;-70
2022/04/24 06:17:17;;;;;;;3.80;1.80;;;;;;;7.89;70.36;99836.08;104989;1277;71495;-72
2022/04/24 06:19:43;;;;;;;3.10;1.60;;;;;;;8.03;69.78;99833.81;104968;1276;73125;-71
2022/04/24 06:22:10;;;;;;;4.30;1.80;;;;;;;8.16;69.35;99836.45;104974;1276;62292;-72
2022/04/24 06:24:37;;;;;;;4.00;1.90;;;;;;;8.30;68.93;99840.72;104927;1276;61644;-71
2022/04/24 06:27:04;;;;;;;;;;;;;;;8.43;69.07;99838.05;105022;1276;74216;-73
2022/04/24 06:29:31;;;;;;;;;;;;;;;8.57;68.21;99837.07;104949;1276;72126;-75
2022/04/24 06:31:58;;;;;;;;;;;;;;;8.69;67.11;99832.41;105075;1275;72753;-72
2022/04/24 06:34:24;;;;;;;;;;;;;;;8.77;66.55;99830.83;104913;1276;61296;-73
2022/04/24 06:36:51;;;;;;;;;;;;;;;8.86;65.98;99832.40;104996;1274;61369;-73
2022/04/24 06:39:17;;;;;;;;;;;;;;;8.95;65.89;99834.66;105320;1275;61246;-73
2022/04/24 06:41:44;;;;;;;;;;;;;;;9.03;65.13;99831.63;104973;1276;61331;-74
2022/04/24 06:44:12;;;;;;;;;;;;;;;9.10;65.42;99830.26;105117;1275;72869;-74
2022/04/24 06:46:39;;;;;;;;;;;;;;;9.17;64.77;99829.17;105050;1276;61252;-74
2022/04/24 06:49:05;;;;;;;;;;;;;;;9.24;64.89;99829.61;105250;1275;61225;-74
2022/04/24 06:51:32;;;;;;;;;;;;;;;9.35;65.08;99826.46;104874;1276;61371;-77
2022/04/24 06:53:58;;;;;;;;;;;;;;;9.49;65.07;99822.48;104905;1276;61256;-74
2022/04/24 06:56:25;;;;;;;;;;;;;;;9.62;64.63;99819.42;105040;1275;61213;-76
2022/04/24 06:58:52;;;;;;;;;;;;;;;9.75;64.10;99820.09;104965;1275;61270;-74
2022/04/24 07:01:19;;;;;;;;;;;;;;;9.91;64.01;99822.73;104862;1276;61128;-73
2022/04/24 07:03:46;;;;;;;;;;;;;;;10.07;63.29;99827.94;104989;1274;74517;-74
2022/04/24 07:06:13;;;;;;;;;;;;;;;10.21;62.40;99823.96;105092;1274;61157;-71
2022/04/24 07:08:39;;;;;;;;;;;;;;;10.28;61.72;99823.96;104970;1275;61269;-72
2022/04/24 07:11:09;;;;;;;;;;;;;;;10.29;61.31;99819.82;104910;1276;61369;-71
2022/04/24 07:13:38;;;;;;;;;;;;;;;10.38;61.33;99818.42;105418;1275;61251;-70
2022/04/24 07:16:08;;;;;;;;;;;;;;;10.49;61.60;99819.56;105950;1276;74938;-73
2022/04/24 07:18:35;;;;;;;;;;;;;;;10.58;61.13;99816.21;104933;1276;73408;-74
2022/04/24 07:21:02;;;;;;;;;;;;;;;10.63;60.91;99815.17;104929;1276;72828;-73
2022/04/24 07:23:37;;;;;;;;;;;;;;;10.65;60.86;99813.30;105001;1274;62370;-74
2022/04/24 07:26:06;;;;;;;;;;;;;;;10.62;60.46;99813.17;104953;1274;61250;-74
2022/04/24 07:28:33;;;;;;;;;;;;;;;10.68;60.63;99813.65;104940;1276;75981;-74
2022/04/24 07:30:59;;;;;;;;;;;;;;;10.77;60.38;99814.78;104991;1276;61464;-74
2022/04/24 07:33:26;;;;;;;;;;;;;;;10.87;60.14;99812.38;105186;1274;61648;-72
2022/04/24 07:35:52;;;;;;;;;;;;;;;10.98;60.19;99807.52;104972;1276;61255;-74
2022/04/24 07:38:19;;;;;;;;;;;;;;;11.02;59.54;99801.77;104982;1274;61337;-74
2022/04/24 07:40:45;;;;;;;;;;;;;;;11.06;59.69;99803.70;105013;1274;61249;-74
2022/04/24 07:43:13;;;;;;;;;;;;;;;11.14;59.60;99802.83;104958;1276;61195;-74
2022/04/24 07:45:48;;;;;;;;;;;;;;;11.22;59.04;99799.14;105011;1274;73017;-74
2022/04/24 07:48:16;;;;;;;;;;;;;;;11.38;59.13;99797.55;105032;1275;61253;-75
2022/04/24 07:50:48;;;;;;;;;;;;;;;11.56;58.22;99795.63;105125;1274;61397;-73
2022/04/24 07:53:16;;;;;;;;;;;;;;;11.67;57.73;99791.70;105130;1274;74994;-75
2022/04/24 07:55:43;;;;;;;;;;;;;;;11.74;57.23;99794.36;104881;1276;71439;-73
2022/04/24 07:58:10;;;;;;;;;;;;;;;11.86;57.08;99794.94;104909;1276;72953;-73
2022/04/24 08:00:37;;;;;;;;;;;;;;;11.98;56.79;99796.52;105081;1276;61857;-74
2022/04/24 08:03:04;;;;;;;;;;;;;;;12.09;56.48;99799.56;104996;1276;61418;-75
2022/04/24 08:05:32;;;;;;;;;;;;;;;12.17;56.31;99793.86;104951;1276;74937;-74
2022/04/24 08:08:00;;;;;;;;;;;;;;;12.16;56.11;99789.41;105168;1274;69764;-73
2022/04/24 08:10:28;;;;;;;;;;;;;;;12.21;56.50;99787.84;105058;1276;72505;-74
2022/04/24 08:12:54;;;;;;;;;;;;;;;12.23;55.59;99790.66;105374;1275;61839;-75
2022/04/24 08:15:21;;;;;;;;;;;;;;;12.22;55.81;99783.23;104997;1276;60143;-75
2022/04/24 08:17:47;;;;;;;;;;;;;;;12.22;56.01;99782.27;104987;1276;74971;-75
2022/04/24 08:20:15;;;;;;;;;;;;;;;12.19;55.77;99780.61;105058;1276;61302;-74
2022/04/24 08:22:43;;;;;;;;;;;;;;;12.07;55.82;99776.74;104918;1276;73834;-75
2022/04/24 08:25:10;;;;;;;;;;;;;;;12.06;56.41;99783.61;105011;1276;61331;-73
2022/04/24 08:27:37;;;;;;;;;;;;;;;12.12;56.31;99776.65;105002;1276;61229;-75
2022/04/24 08:30:08;;;;;;;;;;;;;;;12.24;56.61;99784.02;104941;1276;75899;-77
2022/04/24 08:32:35;;;;;;;;;;;;;;;12.39;56.07;99780.60;105098;1275;72374;-75
2022/04/24 08:35:02;;;;;;;;;;;;;;;12.52;55.95;99778.27;105009;1276;73150;-76
2022/04/24 08:37:29;;;;;;;;;;;;;;;12.57;55.04;99774.36;105062;1276;61354;-76
2022/04/24 08:39:55;;;;;;;;;;;;;;;12.57;54.99;99772.27;105486;1273;61250;-74
2022/04/24 08:42:21;;;;;;;;;;;;;;;12.57;54.92;99775.46;104988;1276;61337;-74
2022/04/24 08:44:51;;;;;;;;;;;;;;;12.62;55.38;99776.42;105899;1273;72458;-76
2022/04/24 08:47:21;;;;;;;;;;;;;;;12.67;54.87;99777.71;105493;1277;73600;-75
2022/04/24 08:49:48;;;;;;;;;;;;;;;12.63;54.72;99775.27;105065;1276;61253;-75
2022/04/24 08:52:15;;;;;;;;;;;;;;;12.63;55.07;99777.77;105129;1276;61247;-76
2022/04/24 08:54:42;;;;;;;;;;;;;;;12.68;55.12;99773.29;105598;1276;75964;-75
2022/04/24 08:57:09;;;;;;;;;;;;;;;12.79;54.75;99778.32;105581;1276;71351;-75
2022/04/24 08:59:36;;;;;;;;;;;;;;;12.92;54.40;99776.00;105074;1274;61358;-75
2022/04/24 09:02:04;;;;;;;;;;;;;;;13.05;54.39;99778.31;105097;1273;61243;-76
2022/04/24 09:04:31;;;;;;;;;;;;;;;13.12;54.02;99777.29;105034;1276;61391;-75
2022/04/24 09:06:58;;;;;;;;;;;;;;;13.22;54.27;99768.21;105023;1276;76419;-74
2022/04/24 09:09:25;;;;;;;;;;;;;;;13.34;53.65;99773.25;105104;1276;71415;-74
2022/04/24 09:11:51;;;;;;;;;;;;;;;13.37;52.92;99770.76;105358;1276;61281;-73
2022/04/24 09:14:19;;;;;;;;;;;;;;;13.37;53.42;99773.64;104972;1276;61443;-77
2022/04/24 09:16:47;;;;;;;;;;;;;;;13.40;53.19;99773.61;105141;1276;61436;-74
2022/04/24 09:19:17;;;;;;;;;;;;;;;13.41;53.08;99773.94;105979;1276;73964;-74
2022/04/24 09:21:44;;;;;;;;;;;;;;;13.42;52.96;99772.81;105055;1276;72717;-73
2022/04/24 09:24:11;;;;;;;;;;;;;;;13.39;52.54;99771.31;104937;1277;74173;-75
2022/04/24 09:26:37;;;;;;;;;;;;;;;13.41;53.04;99769.09;105110;1276;61291;-74
2022/04/24 09:29:11;;;;;;;;;;;;;;;13.49;52.64;99763.79;105053;1276;61229;-75
2022/04/24 09:31:43;;;;;;;;;;;;;;;13.60;52.52;99767.19;104958;1275;75006;-74
2022/04/24 09:34:09;;;;;;;;;;;;;;;13.81;52.87;99769.55;105132;1274;72432;-75
2022/04/24 09:36:36;;;;;;;;;;;;;;;14.04;52.16;99769.50;105117;1276;71270;-75
2022/04/24 09:39:02;;;;;;;;;;;;;;;14.23;51.56;99766.02;105124;1274;61250;-77
2022/04/24 09:41:29;;;;;;;;;;;;;;;14.53;51.29;99773.58;104860;1276;270789;-75
2022/04/24 09:43:55;;;;;;;;;;;;;;;14.80;50.32;99771.84;105037;1276;61336;-77
2022/04/24 09:46:26;;;;;;;;;;;;;;;15.06;49.83;99772.10;105063;1276;61364;-75
2022/04/24 09:48:53;;;;;;;;;;;;;;;15.29;48.64;99768.69;105095;1276;74115;-74
2022/04/24 09:51:22;;;;;;;;;;;;;;;15.41;48.40;99767.96;104936;1276;61348;-75
2022/04/24 09:53:50;;;;;;;;;;;;;;;15.55;47.98;99773.48;105085;1276;61341;-74
2022/04/24 09:56:17;;;;;;;;;;;;;;;15.52;47.27;99772.73;105014;1276;74984;-76
2022/04/24 09:58:43;;;;;;;;;;;;;;;15.37;47.71;99776.83;105052;1276;61385;-75
2022/04/24 10:01:10;;;;;;;;;;;;;;;15.57;48.23;99774.55;104984;1276;73747;-76
2022/04/24 10:03:39;;;;;;;;;;;;;;;15.84;47.65;99774.52;105111;1276;61353;-75
2022/04/24 10:06:09;;;;;;;;;;;;;;;16.14;46.93;99775.98;105108;1276;61374;-73
2022/04/24 10:08:38;;;;;;;;;;;;;;;16.44;46.39;99776.27;105078;1275;76504;-74
2022/04/24 10:11:07;;;;;;;;;;;;;;;16.67;45.40;99777.69;104904;1276;72159;-75
2022/04/24 10:13:41;;;;;;;;;;;;;;;16.78;44.43;99782.04;104951;1276;74042;-75
2022/04/24 10:16:31;;;;;;;;;;;;;;;16.84;44.15;99778.38;104976;1276;61717;-76
2022/04/24 10:19:09;;;;;;;;;;;;;;;16.93;44.20;99781.34;105029;1274;61361;-76
2022/04/24 10:22:02;;;;;;;;;;;;;;;16.98;43.66;99780.64;105071;1276;75726;-75
2022/04/24 10:24:39;;;;;;;;;;;;;;;17.03;43.59;99779.16;105127;1274;71366;-76
2022/04/24 10:27:07;;;;;;;;;;;;;;;17.13;43.54;99782.51;104877;1276;73766;-75
2022/04/24 10:29:34;;;;;;;;;;;;;;;17.21;43.34;99786.41;104964;1276;61584;-76
2022/04/24 10:32:01;;;;;;;;;;;;;;;17.28;42.86;99782.88;104971;1276;61150;-76
2022/04/24 10:34:38;;;;;;;;;;;;;;;17.38;42.89;99779.67;105006;1273;76585;-75
2022/04/24 10:37:05;;;;;;;;;;;;;;;17.52;43.14;99782.05;104947;1276;72444;-74
2022/04/24 10:39:37;;;;;;;;;;;;;;;17.61;42.78;99779.73;104877;1276;61250;-76
2022/04/24 10:42:08;;;;;;;;;;;;;;;17.73;43.10;99783.52;104976;1276;61689;-75
2022/04/24 10:44:34;;;;;;;;;;;;;;;17.88;42.69;99774.39;105004;1276;61608;-76
2022/04/24 10:47:10;;;;;;;;;;;;;;;17.97;42.61;99776.65;104963;1276;61264;-73
2022/04/24 10:49:36;;;;;;;;;;;;;;;18.06;42.46;99777.43;105084;1274;71276;-75
2022/04/24 10:52:04;;;;;;;;;;;;;;;18.24;42.19;99780.96;105025;1276;61359;-73
2022/04/24 10:54:32;;;;;;;;;;;;;;;18.35;41.78;99778.84;105015;1274;62907;-72
2022/04/24 10:56:59;;;;;;;;;;;;;;;18.43;40.93;99776.16;105095;1276;61820;-72
2022/04/24 10:59:26;;;;;;;;;;;;;;;18.54;40.87;99777.10;105134;1275;76269;-75
2022/04/24 11:01:58;;;;;;;;;;;;;;;18.58;40.58;99774.56;105083;1277;71315;-73
2022/04/24 11:04:25;;;;;;;;;;;;;;;18.68;40.41;99765.98;105215;1276;72988;-74
2022/04/24 11:06:53;;;;;;;;;;;;;;;18.65;40.56;99761.12;105142;1274;61843;-72
2022/04/24 11:09:20;;;;;;;4.90;3.10;;;;;;;18.39;40.45;99764.67;104917;1276;61371;-73
2022/04/24 11:11:57;;;;;;;;;;;;;;;18.47;41.33;99764.39;105048;1276;74879;-75
2022/04/24 11:14:25;;;;;;;7.10;3.00;;;;;;;18.50;40.80;99755.04;105154;1276;72393;-73
2022/04/24 11:16:56;;;;;;;4.90;3.00;;;;;;;18.28;40.74;99756.79;104826;1276;73874;-72
2022/04/24 11:19:32;;;;;;;5.30;2.90;;;;;;;18.12;40.98;99756.69;105076;1276;62042;-73
2022/04/24 11:22:02;;;;;;;4.70;3.10;;;;;;;18.00;40.98;99750.63;104953;1276;61234;-70
2022/04/24 11:24:31;;;;;;;5.50;3.00;;;;;;;17.51;41.13;99752.16;104923;1276;75072;-72
2022/04/24 11:27:11;;;;;;;4.60;3.30;;;;;;;17.39;41.93;99748.27;104924;1276;72410;-71
2022/04/24 11:29:39;;;;;;;5.10;3.60;;;;;;;17.62;43.03;99745.99;104824;1276;72881;-71
2022/04/24 11:32:11;;;;;;;4.10;2.20;;;;;;;18.03;41.94;99743.15;105179;1274;61245;-73
2022/04/24 11:34:38;;;;;;;5.90;4.20;;;;;;;18.48;41.63;99743.77;104864;1276;61350;-74
2022/04/24 11:37:05;;;;;;;4.20;3.00;;;;;;;18.91;39.74;99747.56;105064;1274;73765;-71
2022/04/24 11:39:33;;;;;;;5.00;3.30;;;;;;;19.10;38.51;99744.09;105132;1275;72336;-71
2022/04/24 11:41:59;;;;;;;4.60;3.10;;;;;;;18.94;38.06;99744.48;104814;1276;73004;-72
2022/04/24 11:50:16;;;;;;;5.60;3.40;;;;;;;19.41;38.07;99746.67;104917;1276;75962;-71
2022/04/24 11:53:03;;;;;;;6.60;3.70;;;;;;;19.56;37.42;99744.05;104845;1276;71417;-71
2022/04/24 11:58:17;;;;;;;5.70;3.10;;;;;;;19.88;36.94;99739.35;105058;1276;61310;-71
2022/04/24 12:00:45;;;;;;;4.60;3.40;;;;;;;20.02;36.69;99736.14;104955;1276;61142;-73
2022/04/24 12:03:14;;;;;;;7.10;2.90;;;;;;;20.20;36.72;99739.79;104949;1274;75975;-72
2022/04/24 12:05:42;;;;;;;3.00;2.10;;;;;;;20.51;36.28;99734.44;104932;1276;71240;-71
2022/04/24 12:08:11;;;;;;;4.60;2.90;;;;;;;20.52;35.47;99734.33;105027;1276;71780;-72